sensor_id;sensor_type;location;lat;lon;timestamp;pressure;altitude;pressure_sealevel;temperature;humidity
75188;BME280;63762;51.334;22.108;2023-08-30T00:07:48;100580.84;;;21.95;77.75
75188;BME280;63762;51.334;22.108;2023-08-30T00:17:55;100615.16;;;21.91;77.92
75188;BME280;63762;51.334;22.108;2023-08-30T00:28:03;100592.59;;;21.89;77.62
75188;BME280;63762;51.334;22.108;2023-08-30T00:38:10;100609.17;;;21.81;77.84
75188;BME280;63762;51.334;22.108;2023-08-30T00:48:18;100605.38;;;21.82;78.59
75188;BME280;63762;51.334;22.108;2023-08-30T00:58:24;100599.27;;;21.80;78.63
75188;BME280;63762;51.334;22.108;2023-08-30T01:08:31;100566.41;;;21.80;78.83
75188;BME280;63762;51.334;22.108;2023-08-30T01:18:39;100577.30;;;21.74;78.83
75188;BME280;63762;51.334;22.108;2023-08-30T01:28:46;100574.72;;;21.72;78.88
75188;BME280;63762;51.334;22.108;2023-08-30T01:38:53;100573.03;;;21.71;78.85
75188;BME280;63762;51.334;22.108;2023-08-30T01:49:02;100572.56;;;21.68;78.85
75188;BME280;63762;51.334;22.108;2023-08-30T01:59:07;100556.72;;;21.63;78.73
75188;BME280;63762;51.334;22.108;2023-08-30T02:09:24;100542.91;;;21.50;78.80
75188;BME280;63762;51.334;22.108;2023-08-30T02:19:26;100557.52;;;21.36;78.95
75188;BME280;63762;51.334;22.108;2023-08-30T02:29:28;100566.59;;;21.37;79.60
75188;BME280;63762;51.334;22.108;2023-08-30T02:39:35;100569.34;;;21.37;79.31
75188;BME280;63762;51.334;22.108;2023-08-30T02:49:42;100549.89;;;21.32;78.97
75188;BME280;63762;51.334;22.108;2023-08-30T02:59:49;100507.46;;;21.21;78.77
75188;BME280;63762;51.334;22.108;2023-08-30T03:09:56;100510.15;;;21.15;79.80
75188;BME280;63762;51.334;22.108;2023-08-30T03:20:04;100534.98;;;21.13;80.17
75188;BME280;63762;51.334;22.108;2023-08-30T03:30:12;100532.68;;;21.17;80.00
75188;BME280;63762;51.334;22.108;2023-08-30T03:40:18;100532.10;;;21.21;79.97
75188;BME280;63762;51.334;22.108;2023-08-30T03:50:25;100547.30;;;21.24;79.88
75188;BME280;63762;51.334;22.108;2023-08-30T04:00:32;100572.31;;;21.21;80.08
75188;BME280;63762;51.334;22.108;2023-08-30T04:10:40;100556.09;;;21.19;79.97
75188;BME280;63762;51.334;22.108;2023-08-30T04:20:47;100575.35;;;21.11;80.35
75188;BME280;63762;51.334;22.108;2023-08-30T04:30:54;100598.77;;;20.99;80.58
75188;BME280;63762;51.334;22.108;2023-08-30T04:41:00;100572.02;;;20.95;80.81
75188;BME280;63762;51.334;22.108;2023-08-30T04:51:08;100578.98;;;20.97;81.26
75188;BME280;63762;51.334;22.108;2023-08-30T05:01:15;100551.25;;;21.00;81.23
75188;BME280;63762;51.334;22.108;2023-08-30T05:11:22;100566.61;;;21.01;81.44
75188;BME280;63762;51.334;22.108;2023-08-30T05:21:29;100576.88;;;20.99;82.09
75188;BME280;63762;51.334;22.108;2023-08-30T05:31:36;100576.84;;;21.14;82.40
75188;BME280;63762;51.334;22.108;2023-08-30T05:41:43;100578.67;;;21.07;82.46
75188;BME280;63762;51.334;22.108;2023-08-30T05:51:50;100583.50;;;21.05;83.12
75188;BME280;63762;51.334;22.108;2023-08-30T06:01:57;100596.19;;;21.12;82.86
75188;BME280;63762;51.334;22.108;2023-08-30T06:12:05;100599.16;;;21.32;82.88
75188;BME280;63762;51.334;22.108;2023-08-30T06:22:12;100597.92;;;21.34;82.37
75188;BME280;63762;51.334;22.108;2023-08-30T06:32:19;100602.42;;;21.42;82.15
75188;BME280;63762;51.334;22.108;2023-08-30T06:42:26;100594.16;;;21.56;81.90
75188;BME280;63762;51.334;22.108;2023-08-30T06:52:33;100615.44;;;21.75;82.36
75188;BME280;63762;51.334;22.108;2023-08-30T07:02:40;100627.96;;;21.84;81.71
75188;BME280;63762;51.334;22.108;2023-08-30T07:12:47;100625.22;;;21.84;81.05
75188;BME280;63762;51.334;22.108;2023-08-30T07:22:54;100622.02;;;21.81;80.82
75188;BME280;63762;51.334;22.108;2023-08-30T07:33:02;100621.30;;;21.93;80.56
75188;BME280;63762;51.334;22.108;2023-08-30T07:43:09;100611.75;;;22.11;80.50
75188;BME280;63762;51.334;22.108;2023-08-30T07:53:16;100617.91;;;21.91;79.11
75188;BME280;63762;51.334;22.108;2023-08-30T08:03:23;100617.31;;;21.75;79.73
75188;BME280;63762;51.334;22.108;2023-08-30T08:13:30;100608.98;;;21.83;80.00
75188;BME280;63762;51.334;22.108;2023-08-30T08:23:37;100594.80;;;21.58;78.33
75188;BME280;63762;51.334;22.108;2023-08-30T08:33:44;100595.61;;;21.73;77.65
75188;BME280;63762;51.334;22.108;2023-08-30T08:43:52;100607.34;;;21.67;76.62
75188;BME280;63762;51.334;22.108;2023-08-30T08:54:02;100604.76;;;21.80;77.83
75188;BME280;63762;51.334;22.108;2023-08-30T09:04:08;100601.47;;;21.91;77.83
75188;BME280;63762;51.334;22.108;2023-08-30T09:14:13;100606.68;;;21.86;78.14
75188;BME280;63762;51.334;22.108;2023-08-30T09:24:20;100610.34;;;21.93;77.41
75188;BME280;63762;51.334;22.108;2023-08-30T09:34:27;100606.20;;;22.04;76.21
75188;BME280;63762;51.334;22.108;2023-08-30T09:44:34;100590.16;;;22.29;76.65
75188;BME280;63762;51.334;22.108;2023-08-30T09:54:42;100589.85;;;22.79;74.70
75188;BME280;63762;51.334;22.108;2023-08-30T10:04:48;100595.28;;;23.13;73.16
75188;BME280;63762;51.334;22.108;2023-08-30T10:14:55;100612.45;;;23.28;72.85
75188;BME280;63762;51.334;22.108;2023-08-30T10:35:18;100624.77;;;23.45;71.39
75188;BME280;63762;51.334;22.108;2023-08-30T10:45:23;100636.17;;;23.48;70.29
75188;BME280;63762;51.334;22.108;2023-08-30T10:55:25;100630.20;;;23.32;70.26
75188;BME280;63762;51.334;22.108;2023-08-30T11:05:31;100625.60;;;23.39;71.30
75188;BME280;63762;51.334;22.108;2023-08-30T11:15:38;100615.08;;;23.62;70.77
75188;BME280;63762;51.334;22.108;2023-08-30T11:25:50;100605.38;;;23.92;70.46
75188;BME280;63762;51.334;22.108;2023-08-30T11:35:52;100592.31;;;24.07;70.03
75188;BME280;63762;51.334;22.108;2023-08-30T11:45:59;100608.80;;;24.07;67.85
75188;BME280;63762;51.334;22.108;2023-08-30T11:56:06;100598.23;;;24.17;68.15
75188;BME280;63762;51.334;22.108;2023-08-30T12:06:14;100617.26;;;24.12;67.79
75188;BME280;63762;51.334;22.108;2023-08-30T12:16:21;100610.30;;;24.16;67.54
75188;BME280;63762;51.334;22.108;2023-08-30T12:26:32;100591.88;;;24.23;67.10
75188;BME280;63762;51.334;22.108;2023-08-30T12:36:39;100592.06;;;24.28;66.04
75188;BME280;63762;51.334;22.108;2023-08-30T12:56:49;100579.91;;;24.81;65.58
75188;BME280;63762;51.334;22.108;2023-08-30T13:06:56;100568.59;;;25.46;62.03
75188;BME280;63762;51.334;22.108;2023-08-30T13:17:03;100568.04;;;26.97;58.24
75188;BME280;63762;51.334;22.108;2023-08-30T13:27:10;100560.14;;;28.24;54.57
75188;BME280;63762;51.334;22.108;2023-08-30T13:37:21;100568.34;;;28.30;53.20
75188;BME280;63762;51.334;22.108;2023-08-30T13:47:25;100569.48;;;26.81;55.66
75188;BME280;63762;51.334;22.108;2023-08-30T13:57:32;100591.06;;;25.43;62.08
75188;BME280;63762;51.334;22.108;2023-08-30T14:07:39;100606.44;;;24.43;66.90
75188;BME280;63762;51.334;22.108;2023-08-30T14:17:46;100601.13;;;23.70;70.25
75188;BME280;63762;51.334;22.108;2023-08-30T14:27:53;100627.24;;;23.27;71.51
75188;BME280;63762;51.334;22.108;2023-08-30T14:38:01;100644.78;;;22.92;73.12
75188;BME280;63762;51.334;22.108;2023-08-30T14:48:07;100634.06;;;22.97;74.37
75188;BME280;63762;51.334;22.108;2023-08-30T14:58:14;100617.52;;;23.24;73.70
75188;BME280;63762;51.334;22.108;2023-08-30T15:08:23;100613.58;;;23.53;73.53
75188;BME280;63762;51.334;22.108;2023-08-30T15:18:29;100616.12;;;23.61;70.91
75188;BME280;63762;51.334;22.108;2023-08-30T15:28:36;100608.23;;;23.32;71.25
75188;BME280;63762;51.334;22.108;2023-08-30T15:38:43;100618.31;;;23.18;71.93
75188;BME280;63762;51.334;22.108;2023-08-30T15:48:50;100638.49;;;22.98;72.97
75188;BME280;63762;51.334;22.108;2023-08-30T15:58:57;100647.65;;;22.71;72.95
75188;BME280;63762;51.334;22.108;2023-08-30T16:09:04;100648.37;;;22.52;71.97
75188;BME280;63762;51.334;22.108;2023-08-30T16:19:11;100642.26;;;22.29;72.59
75188;BME280;63762;51.334;22.108;2023-08-30T16:29:19;100642.09;;;22.09;72.16
75188;BME280;63762;51.334;22.108;2023-08-30T16:39:26;100650.73;;;21.70;73.35
75188;BME280;63762;51.334;22.108;2023-08-30T16:49:33;100659.34;;;21.46;72.99
75188;BME280;63762;51.334;22.108;2023-08-30T16:59:40;100644.74;;;21.39;73.38
75188;BME280;63762;51.334;22.108;2023-08-30T17:09:47;100658.91;;;21.28;73.86
75188;BME280;63762;51.334;22.108;2023-08-30T17:19:54;100651.30;;;21.24;74.01
75188;BME280;63762;51.334;22.108;2023-08-30T17:30:03;100658.17;;;21.20;73.99
75188;BME280;63762;51.334;22.108;2023-08-30T17:40:10;100641.02;;;21.11;73.92
75188;BME280;63762;51.334;22.108;2023-08-30T17:50:16;100634.63;;;21.04;74.04
75188;BME280;63762;51.334;22.108;2023-08-30T18:00:23;100638.02;;;20.92;73.98
75188;BME280;63762;51.334;22.108;2023-08-30T18:10:30;100637.66;;;20.66;74.74
75188;BME280;63762;51.334;22.108;2023-08-30T18:20:37;100624.06;;;20.43;75.46
75188;BME280;63762;51.334;22.108;2023-08-30T18:30:44;100667.95;;;20.27;76.17
75188;BME280;63762;51.334;22.108;2023-08-30T18:40:51;100656.75;;;20.22;76.11
75188;BME280;63762;51.334;22.108;2023-08-30T18:50:58;100671.43;;;20.21;76.44
75188;BME280;63762;51.334;22.108;2023-08-30T19:01:05;100686.81;;;20.22;76.31
75188;BME280;63762;51.334;22.108;2023-08-30T19:11:12;100678.30;;;20.17;76.31
75188;BME280;63762;51.334;22.108;2023-08-30T19:21:19;100714.50;;;20.19;76.94
75188;BME280;63762;51.334;22.108;2023-08-30T19:31:31;100736.72;;;20.16;77.12
75188;BME280;63762;51.334;22.108;2023-08-30T19:41:34;100735.51;;;20.11;77.06
75188;BME280;63762;51.334;22.108;2023-08-30T19:51:41;100736.81;;;20.00;77.38
75188;BME280;63762;51.334;22.108;2023-08-30T20:01:48;100743.00;;;19.94;77.41
75188;BME280;63762;51.334;22.108;2023-08-30T20:11:55;100760.11;;;19.88;77.85
75188;BME280;63762;51.334;22.108;2023-08-30T20:22:02;100790.86;;;19.82;78.12
75188;BME280;63762;51.334;22.108;2023-08-30T20:32:09;100779.94;;;19.82;77.92
75188;BME280;63762;51.334;22.108;2023-08-30T20:42:17;100780.65;;;19.76;78.04
75188;BME280;63762;51.334;22.108;2023-08-30T20:52:24;100786.47;;;19.73;77.71
75188;BME280;63762;51.334;22.108;2023-08-30T21:02:31;100785.46;;;19.74;77.30
75188;BME280;63762;51.334;22.108;2023-08-30T21:12:38;100795.88;;;19.70;77.58
75188;BME280;63762;51.334;22.108;2023-08-30T21:22:45;100789.88;;;19.75;76.99
75188;BME280;63762;51.334;22.108;2023-08-30T21:32:52;100779.84;;;19.67;77.00
75188;BME280;63762;51.334;22.108;2023-08-30T21:42:59;100793.55;;;19.59;77.19
75188;BME280;63762;51.334;22.108;2023-08-30T21:53:06;100797.83;;;19.54;76.93
75188;BME280;63762;51.334;22.108;2023-08-30T22:03:13;100807.10;;;19.45;77.47
75188;BME280;63762;51.334;22.108;2023-08-30T22:13:21;100803.34;;;19.38;77.49
75188;BME280;63762;51.334;22.108;2023-08-30T22:26:37;100806.84;;;19.16;76.82
75188;BME280;63762;51.334;22.108;2023-08-30T22:36:44;100807.70;;;19.08;77.42
75188;BME280;63762;51.334;22.108;2023-08-30T22:46:51;100818.43;;;19.10;77.72
75188;BME280;63762;51.334;22.108;2023-08-30T22:56:59;100819.77;;;19.14;77.71
75188;BME280;63762;51.334;22.108;2023-08-30T23:07:06;100823.20;;;19.16;77.38
75188;BME280;63762;51.334;22.108;2023-08-30T23:17:13;100817.74;;;19.08;77.71
75188;BME280;63762;51.334;22.108;2023-08-30T23:27:20;100825.93;;;19.08;77.79
75188;BME280;63762;51.334;22.108;2023-08-30T23:37:28;100804.14;;;19.00;78.02
75188;BME280;63762;51.334;22.108;2023-08-30T23:47:35;100802.77;;;19.04;78.41
75188;BME280;63762;51.334;22.108;2023-08-30T23:57:41;100811.29;;;19.01;78.08
